createdAt,value
2023-02-07T00:01:29.933Z,94.60
2023-02-07T00:03:57.283Z,94.80
2023-02-07T00:06:30.830Z,94.80
2023-02-07T00:09:03.357Z,94.70
2023-02-07T00:11:30.604Z,94.80
2023-02-07T00:13:59.701Z,94.50
2023-02-07T00:16:26.859Z,94.50
2023-02-07T00:18:54.913Z,94.40
2023-02-07T00:21:23.828Z,94.10
2023-02-07T00:23:51.336Z,94.30
2023-02-07T00:26:20.903Z,94.00
2023-02-07T00:28:49.308Z,93.80
2023-02-07T00:31:31.869Z,93.60
2023-02-07T00:34:02.130Z,93.60
2023-02-07T00:36:32.870Z,93.10
2023-02-07T00:39:10.590Z,92.80
2023-02-07T00:41:38.016Z,92.90
2023-02-07T00:44:05.541Z,93.00
2023-02-07T00:46:39.123Z,92.80
2023-02-07T00:49:06.722Z,92.90
2023-02-07T00:51:33.960Z,92.90
2023-02-07T00:54:01.009Z,93.00
2023-02-07T00:56:29.437Z,92.70
2023-02-07T00:58:58.011Z,92.30
2023-02-07T01:01:24.910Z,92.10
2023-02-07T01:03:52.111Z,91.80
2023-02-07T01:06:19.092Z,92.00
2023-02-07T01:08:46.067Z,92.00
2023-02-07T01:11:16.571Z,91.90
2023-02-07T01:13:44.602Z,91.90
2023-02-07T01:16:24.389Z,92.00
2023-02-07T01:18:51.513Z,92.00
2023-02-07T01:21:20.823Z,92.00
2023-02-07T01:23:48.026Z,91.30
2023-02-07T01:26:15.017Z,91.50
2023-02-07T01:28:41.912Z,91.30
2023-02-07T01:31:10.689Z,91.00
2023-02-07T01:33:39.044Z,91.20
2023-02-07T01:36:11.018Z,91.50
2023-02-07T01:38:37.800Z,91.70
2023-02-07T01:41:06.518Z,91.80
2023-02-07T01:43:34.352Z,91.90
2023-02-07T01:46:01.249Z,92.00
2023-02-07T01:48:36.095Z,92.10
2023-02-07T01:51:07.321Z,92.20
2023-02-07T01:53:37.793Z,92.50
2023-02-07T01:56:09.268Z,92.60
2023-02-07T01:58:38.667Z,93.10
2023-02-07T02:01:18.197Z,93.20
2023-02-07T02:03:49.082Z,92.90
2023-02-07T02:06:17.961Z,93.20
2023-02-07T02:08:44.968Z,93.00
2023-02-07T02:11:36.565Z,93.40
2023-02-07T02:14:47.872Z,92.80
2023-02-07T02:17:44.999Z,93.00
2023-02-07T02:20:20.710Z,93.00
2023-02-07T02:22:56.460Z,93.50
2023-02-07T02:25:38.092Z,93.40
2023-02-07T02:28:22.825Z,93.10
2023-02-07T02:31:15.622Z,93.50
2023-02-07T02:34:16.100Z,93.60
2023-02-07T02:37:10.400Z,93.70
2023-02-07T02:40:10.813Z,93.80
2023-02-07T02:42:42.502Z,94.00
2023-02-07T02:45:57.154Z,94.20
2023-02-07T02:48:24.762Z,93.70
2023-02-07T02:50:54.145Z,93.70
2023-02-07T02:53:22.282Z,93.90
2023-02-07T02:56:24.185Z,93.90
2023-02-07T02:59:19.863Z,94.70
2023-02-07T03:01:52.749Z,94.40
2023-02-07T03:04:50.824Z,94.20
2023-02-07T03:07:33.780Z,94.50
2023-02-07T03:10:00.518Z,94.90
2023-02-07T03:12:42.028Z,95.00
2023-02-07T03:15:08.756Z,95.20
2023-02-07T03:18:06.251Z,95.10
2023-02-07T03:20:41.634Z,95.00
2023-02-07T03:23:10.821Z,95.20
2023-02-07T03:25:41.240Z,95.80
2023-02-07T03:28:10.910Z,95.70
2023-02-07T03:30:40.046Z,95.40
2023-02-07T03:33:11.536Z,95.50
2023-02-07T03:35:53.724Z,95.40
2023-02-07T03:38:20.691Z,95.80
2023-02-07T03:40:52.208Z,95.80
2023-02-07T03:43:24.888Z,95.70
2023-02-07T03:45:51.652Z,95.80
2023-02-07T03:48:19.009Z,95.90
2023-02-07T03:50:47.591Z,96.10
2023-02-07T03:53:14.415Z,96.40
2023-02-07T03:55:41.486Z,96.20
2023-02-07T03:58:11.487Z,96.50
2023-02-07T04:00:38.384Z,96.10
2023-02-07T04:03:05.371Z,96.40
2023-02-07T04:05:32.214Z,96.40
2023-02-07T04:07:58.949Z,96.50
2023-02-07T04:10:25.696Z,96.60
2023-02-07T04:12:52.642Z,96.60
2023-02-07T04:15:19.668Z,96.60
2023-02-07T04:17:46.519Z,96.60
2023-02-07T04:20:13.614Z,96.60
2023-02-07T04:22:40.396Z,96.60
2023-02-07T04:25:07.351Z,96.60
2023-02-07T04:27:34.146Z,96.60
2023-02-07T04:30:01.234Z,96.60
2023-02-07T04:32:28.099Z,96.60
2023-02-07T04:34:54.882Z,96.60
2023-02-07T04:37:21.742Z,96.60
2023-02-07T04:39:48.535Z,96.60
2023-02-07T04:42:15.427Z,96.60
2023-02-07T04:44:42.395Z,96.60
2023-02-07T04:47:09.158Z,96.60
2023-02-07T04:49:36.138Z,96.60
2023-02-07T04:52:03.175Z,96.60
2023-02-07T04:54:30.013Z,96.60
2023-02-07T04:56:57.012Z,96.60
2023-02-07T04:59:23.707Z,96.60
2023-02-07T05:01:50.436Z,96.60
2023-02-07T05:04:17.403Z,96.60
2023-02-07T05:06:44.219Z,96.60
2023-02-07T05:09:11.013Z,96.60
2023-02-07T05:11:37.839Z,96.60
2023-02-07T05:14:04.744Z,96.60
2023-02-07T05:16:31.574Z,96.60
2023-02-07T05:18:58.347Z,96.60
2023-02-07T05:21:25.242Z,96.60
2023-02-07T05:23:52.053Z,96.60
2023-02-07T05:26:18.847Z,96.60
2023-02-07T05:28:45.810Z,96.60
2023-02-07T05:31:12.782Z,96.60
2023-02-07T05:33:39.551Z,96.60
2023-02-07T05:36:07.351Z,96.60
2023-02-07T05:38:34.157Z,96.60
2023-02-07T05:41:01.215Z,96.60
2023-02-07T05:43:31.173Z,96.60
2023-02-07T05:45:57.924Z,96.60
2023-02-07T05:48:24.801Z,96.60
2023-02-07T05:50:51.640Z,96.60
2023-02-07T05:53:18.655Z,96.60
2023-02-07T05:55:45.471Z,96.60
2023-02-07T05:58:12.408Z,96.60
2023-02-07T06:00:39.127Z,96.60
2023-02-07T06:03:06.220Z,96.60
2023-02-07T06:05:37.128Z,96.60
2023-02-07T06:08:04.362Z,96.60
2023-02-07T06:10:31.242Z,96.60
2023-02-07T06:12:58.063Z,96.60
2023-02-07T06:15:25.276Z,96.60
2023-02-07T06:17:52.112Z,96.60
2023-02-07T06:20:19.111Z,96.60
2023-02-07T06:22:45.881Z,96.60
2023-02-07T06:25:12.626Z,96.60
2023-02-07T06:27:40.473Z,96.60
2023-02-07T06:30:09.237Z,96.60
2023-02-07T06:32:36.118Z,96.60
2023-02-07T06:35:03.166Z,96.60
2023-02-07T06:37:30.097Z,96.60
2023-02-07T06:39:56.942Z,96.60
2023-02-07T06:42:24.054Z,96.60
2023-02-07T06:44:51.343Z,96.60
2023-02-07T06:47:20.616Z,96.60
2023-02-07T06:49:48.037Z,96.60
2023-02-07T06:52:15.003Z,96.60
2023-02-07T06:54:42.117Z,96.60
2023-02-07T06:57:09.076Z,96.60
2023-02-07T06:59:36.032Z,96.60
2023-02-07T07:02:03.684Z,96.60
2023-02-07T07:04:31.423Z,96.60
2023-02-07T07:06:58.475Z,96.60
2023-02-07T07:09:25.301Z,96.60
2023-02-07T07:11:52.192Z,96.60
2023-02-07T07:14:19.036Z,96.60
2023-02-07T07:16:45.845Z,96.60
2023-02-07T07:19:13.414Z,96.60
2023-02-07T07:21:40.339Z,96.60
2023-02-07T07:24:07.281Z,96.60
2023-02-07T07:26:48.441Z,96.60
2023-02-07T07:29:17.698Z,96.60
2023-02-07T07:31:45.045Z,96.60
2023-02-07T07:34:13.177Z,96.00
2023-02-07T07:36:40.134Z,95.50
2023-02-07T07:39:08.924Z,95.00
2023-02-07T07:41:35.823Z,94.50
2023-02-07T07:44:02.890Z,93.60
2023-02-07T07:46:30.055Z,92.60
2023-02-07T07:48:56.864Z,92.70
2023-02-07T07:51:23.602Z,92.00
2023-02-07T07:53:50.530Z,91.10
2023-02-07T07:56:17.283Z,89.60
2023-02-07T07:58:44.297Z,88.30
2023-02-07T08:01:11.161Z,87.00
2023-02-07T08:03:38.380Z,85.20
2023-02-07T08:06:05.563Z,84.30
2023-02-07T08:08:32.758Z,81.70
2023-02-07T08:11:11.526Z,78.80
2023-02-07T08:13:38.700Z,78.90
2023-02-07T08:16:11.006Z,76.80
2023-02-07T08:18:37.927Z,77.70
2023-02-07T08:21:04.860Z,76.90
2023-02-07T08:23:33.527Z,75.10
2023-02-07T08:26:00.526Z,74.80
2023-02-07T08:28:28.288Z,71.10
2023-02-07T08:30:55.228Z,69.50
2023-02-07T08:33:22.009Z,68.50
2023-02-07T08:35:50.077Z,68.40
2023-02-07T08:38:16.831Z,67.70
2023-02-07T08:40:43.662Z,66.40
2023-02-07T08:43:12.420Z,66.40
2023-02-07T08:45:40.571Z,66.30
2023-02-07T08:48:08.160Z,67.50
2023-02-07T08:50:35.196Z,67.50
2023-02-07T08:53:02.606Z,67.70
2023-02-07T08:55:30.922Z,67.30
2023-02-07T08:57:58.126Z,68.60
2023-02-07T09:00:25.026Z,68.70
2023-02-07T09:02:51.945Z,68.50
2023-02-07T09:05:18.942Z,67.70
2023-02-07T09:07:51.956Z,66.30
2023-02-07T09:10:26.225Z,67.40
2023-02-07T09:12:53.181Z,67.10
2023-02-07T09:15:20.100Z,67.20
2023-02-07T09:17:46.949Z,68.80
2023-02-07T09:20:19.394Z,68.80
2023-02-07T09:23:06.440Z,69.70
2023-02-07T09:25:36.964Z,69.50
2023-02-07T09:28:04.188Z,70.40
2023-02-07T09:30:31.127Z,70.10
2023-02-07T09:32:58.507Z,71.10
2023-02-07T09:35:25.570Z,71.60
2023-02-07T09:37:58.105Z,71.50
2023-02-07T09:40:25.411Z,71.60
2023-02-07T09:43:18.620Z,71.40
2023-02-07T09:45:49.634Z,71.60
2023-02-07T09:48:23.007Z,70.70
2023-02-07T09:50:54.952Z,70.20
2023-02-07T09:53:54.493Z,69.50
2023-02-07T09:56:24.404Z,69.20
2023-02-07T09:59:06.365Z,68.30
2023-02-07T10:01:39.721Z,68.30
2023-02-07T10:04:21.066Z,68.80
2023-02-07T10:06:54.917Z,66.20
2023-02-07T10:09:32.325Z,62.90
2023-02-07T10:12:04.572Z,60.10
2023-02-07T10:14:49.032Z,58.00
2023-02-07T10:17:31.383Z,55.50
2023-02-07T10:20:07.468Z,55.10
2023-02-07T10:23:03.873Z,52.60
2023-02-07T10:26:16.900Z,50.60
2023-02-07T10:29:04.262Z,48.90
2023-02-07T10:31:34.329Z,49.10
2023-02-07T10:34:18.021Z,47.50
2023-02-07T10:36:47.814Z,46.10
2023-02-07T10:39:33.381Z,45.20
2023-02-07T10:42:00.156Z,41.60
2023-02-07T10:44:28.608Z,43.00
2023-02-07T10:47:04.468Z,43.20
2023-02-07T10:49:37.913Z,42.70
2023-02-07T10:52:31.529Z,41.80
2023-02-07T10:55:01.210Z,42.00
2023-02-07T10:57:29.795Z,43.90
2023-02-07T11:00:05.634Z,44.90
2023-02-07T11:02:32.385Z,46.70
2023-02-07T11:05:05.957Z,48.70
2023-02-07T11:07:46.177Z,48.70
2023-02-07T11:10:16.087Z,51.00
2023-02-07T11:12:48.519Z,50.70
2023-02-07T11:15:17.971Z,50.10
2023-02-07T11:18:06.628Z,52.80
2023-02-07T11:20:40.913Z,53.70
2023-02-07T11:23:16.648Z,55.90
2023-02-07T11:25:47.029Z,55.00
2023-02-07T11:28:22.655Z,55.70
2023-02-07T11:31:03.348Z,56.30
2023-02-07T11:33:34.066Z,57.30
2023-02-07T11:36:23.819Z,57.80
2023-02-07T11:39:00.744Z,59.00
2023-02-07T11:41:31.085Z,58.60
2023-02-07T11:44:04.272Z,58.70
2023-02-07T11:46:41.307Z,59.10
2023-02-07T11:49:26.918Z,59.20
2023-02-07T11:51:58.025Z,59.70
2023-02-07T11:54:30.872Z,59.30
2023-02-07T11:57:07.646Z,59.50
2023-02-07T11:59:34.906Z,60.00
2023-02-07T12:02:24.252Z,60.20
2023-02-07T12:04:53.141Z,59.70
2023-02-07T12:07:20.120Z,59.50
2023-02-07T12:10:03.345Z,59.30
2023-02-07T12:12:48.522Z,58.90
2023-02-07T12:15:20.946Z,58.80
2023-02-07T12:18:22.129Z,60.80
2023-02-07T12:21:02.297Z,61.50
2023-02-07T12:23:42.606Z,60.90
2023-02-07T12:26:24.397Z,60.70
2023-02-07T12:29:12.839Z,60.90
2023-02-07T12:31:59.383Z,60.10
2023-02-07T12:34:53.086Z,61.50
2023-02-07T12:37:58.593Z,61.50
2023-02-07T12:40:39.467Z,60.70
2023-02-07T12:43:25.879Z,59.80
2023-02-07T12:46:01.339Z,59.00
2023-02-07T12:48:46.875Z,58.30
2023-02-07T12:51:49.956Z,60.00
2023-02-07T12:54:35.047Z,59.40
2023-02-07T12:57:14.299Z,57.60
2023-02-07T12:59:50.679Z,58.30
2023-02-07T13:02:38.261Z,58.20
2023-02-07T13:05:15.823Z,57.90
2023-02-07T13:08:01.118Z,57.80
2023-02-07T13:10:52.483Z,59.30
2023-02-07T13:13:24.841Z,59.00
2023-02-07T13:16:00.284Z,58.40
2023-02-07T13:18:51.498Z,59.10
2023-02-07T13:21:30.091Z,57.60
2023-02-07T13:24:04.866Z,56.80
2023-02-07T13:26:33.728Z,58.50
2023-02-07T13:29:08.120Z,56.80
2023-02-07T13:31:46.491Z,55.20
2023-02-07T13:34:19.570Z,55.80
2023-02-07T13:36:52.512Z,56.00
2023-02-07T13:39:51.839Z,55.60
2023-02-07T13:42:38.860Z,56.30
2023-02-07T13:46:04.991Z,56.10
2023-02-07T13:48:54.582Z,55.50
2023-02-07T13:51:50.569Z,53.40
2023-02-07T13:54:35.409Z,53.10
2023-02-07T13:57:22.307Z,53.40
2023-02-07T14:00:07.967Z,51.90
2023-02-07T14:02:51.394Z,51.80
2023-02-07T14:05:22.691Z,49.40
2023-02-07T14:08:02.789Z,47.40
2023-02-07T14:10:48.603Z,47.00
2023-02-07T14:13:28.879Z,48.30
2023-02-07T14:16:00.664Z,48.60
2023-02-07T14:18:48.090Z,47.70
2023-02-07T14:21:21.336Z,48.20
2023-02-07T14:23:53.751Z,46.50
2023-02-07T14:26:43.777Z,46.00
2023-02-07T14:29:22.851Z,45.80
2023-02-07T14:32:00.437Z,46.40
2023-02-07T14:35:01.614Z,46.50
2023-02-07T14:38:03.137Z,45.90
2023-02-07T14:40:51.427Z,46.30
2023-02-07T14:43:40.261Z,47.00
2023-02-07T14:46:16.424Z,48.20
2023-02-07T14:48:49.649Z,50.30
2023-02-07T14:51:31.824Z,54.70
2023-02-07T14:53:58.569Z,53.00
2023-02-07T14:56:40.672Z,54.40
2023-02-07T14:59:13.569Z,53.70
2023-02-07T15:01:40.385Z,57.80
2023-02-07T15:04:12.682Z,56.00
2023-02-07T15:07:00.876Z,56.50
2023-02-07T15:09:27.992Z,57.10
2023-02-07T15:12:12.712Z,59.80
2023-02-07T15:14:42.996Z,60.10
2023-02-07T15:17:10.943Z,61.80
2023-02-07T15:19:40.619Z,63.70
2023-02-07T15:22:23.902Z,63.50
2023-02-07T15:24:55.230Z,64.10
2023-02-07T15:27:25.225Z,62.10
2023-02-07T15:30:04.151Z,62.20
2023-02-07T15:32:34.808Z,63.60
2023-02-07T15:35:36.287Z,65.40
2023-02-07T15:38:24.783Z,65.20
2023-02-07T15:40:55.481Z,67.20
2023-02-07T15:43:27.570Z,66.30
2023-02-07T15:46:11.908Z,65.60
2023-02-07T15:48:51.974Z,66.50
2023-02-07T15:51:22.411Z,68.50
2023-02-07T15:53:55.850Z,65.70
2023-02-07T15:56:22.942Z,67.00
2023-02-07T15:58:50.741Z,67.00
2023-02-07T16:01:25.165Z,68.20
2023-02-07T16:03:55.965Z,67.80
2023-02-07T16:06:25.561Z,67.80
2023-02-07T16:08:57.467Z,67.90
2023-02-07T16:11:27.662Z,68.70
2023-02-07T16:14:12.571Z,68.10
2023-02-07T16:16:47.169Z,68.50
2023-02-07T16:19:27.966Z,68.40
2023-02-07T16:22:11.270Z,68.30
2023-02-07T16:24:41.234Z,69.70
2023-02-07T16:27:14.675Z,69.40
2023-02-07T16:29:41.660Z,70.80
2023-02-07T16:32:12.405Z,70.50
2023-02-07T16:34:50.311Z,71.70
2023-02-07T16:37:24.617Z,71.70
2023-02-07T16:39:51.716Z,71.60
2023-02-07T16:42:19.675Z,70.80
2023-02-07T16:44:47.218Z,70.30
2023-02-07T16:47:14.845Z,71.50
2023-02-07T16:49:44.855Z,71.20
2023-02-07T16:52:14.761Z,71.30
2023-02-07T16:54:41.568Z,71.10
2023-02-07T16:57:11.627Z,72.70
2023-02-07T16:59:38.380Z,72.20
2023-02-07T17:02:13.913Z,73.90
2023-02-07T17:04:40.786Z,75.50
2023-02-07T17:07:11.111Z,76.30
2023-02-07T17:09:37.965Z,76.70
2023-02-07T17:12:04.874Z,77.30
2023-02-07T17:14:31.854Z,77.40
2023-02-07T17:17:01.487Z,77.60
2023-02-07T17:19:28.446Z,77.60
2023-02-07T17:21:56.567Z,77.10
2023-02-07T17:24:23.485Z,76.40
2023-02-07T17:26:53.792Z,78.20
2023-02-07T17:29:21.090Z,78.20
2023-02-07T17:31:48.840Z,78.30
2023-02-07T17:34:16.244Z,77.90
2023-02-07T17:36:48.988Z,79.40
2023-02-07T17:39:18.085Z,79.50
2023-02-07T17:41:45.064Z,80.10
2023-02-07T17:44:11.784Z,79.80
2023-02-07T17:46:38.733Z,80.10
2023-02-07T17:49:12.646Z,79.50
2023-02-07T17:51:39.396Z,79.50
2023-02-07T17:54:06.280Z,79.60
2023-02-07T17:56:34.226Z,79.70
2023-02-07T17:59:04.012Z,79.80
2023-02-07T18:01:31.983Z,80.50
2023-02-07T18:03:59.204Z,81.10
2023-02-07T18:06:29.160Z,81.00
2023-02-07T18:08:58.506Z,81.70
2023-02-07T18:11:27.248Z,82.70
2023-02-07T18:13:56.879Z,82.50
2023-02-07T18:16:25.676Z,82.50
2023-02-07T18:18:54.502Z,82.30
2023-02-07T18:21:21.573Z,82.50
2023-02-07T18:23:48.368Z,82.20
2023-02-07T18:26:16.534Z,82.40
2023-02-07T18:28:44.024Z,82.40
2023-02-07T18:31:18.726Z,82.20
2023-02-07T18:33:47.487Z,82.10
2023-02-07T18:36:14.858Z,82.00
2023-02-07T18:38:41.584Z,81.70
2023-02-07T18:41:14.707Z,81.70
2023-02-07T18:43:42.522Z,82.10
2023-02-07T18:46:11.257Z,82.40
2023-02-07T18:48:38.146Z,82.90
2023-02-07T18:51:10.487Z,83.90
2023-02-07T18:53:37.834Z,83.60
2023-02-07T18:56:13.518Z,83.60
2023-02-07T18:58:40.505Z,83.10
2023-02-07T19:01:10.307Z,83.00
2023-02-07T19:03:38.531Z,82.80
2023-02-07T19:06:06.763Z,82.70
2023-02-07T19:08:33.890Z,82.70
2023-02-07T19:11:06.215Z,82.80
2023-02-07T19:13:34.975Z,82.50
2023-02-07T19:16:15.716Z,82.50
2023-02-07T19:18:42.697Z,82.20
2023-02-07T19:21:15.507Z,82.30
2023-02-07T19:23:42.795Z,81.90
2023-02-07T19:26:10.486Z,81.90
2023-02-07T19:28:38.225Z,81.90
2023-02-07T19:31:07.397Z,81.80
2023-02-07T19:33:35.623Z,81.50
2023-02-07T19:36:10.854Z,81.50
2023-02-07T19:38:38.384Z,81.60
2023-02-07T19:41:06.384Z,82.00
2023-02-07T19:43:34.092Z,82.60
2023-02-07T19:46:01.512Z,83.10
2023-02-07T19:48:28.402Z,83.20
2023-02-07T19:51:04.151Z,83.10
2023-02-07T19:53:31.773Z,83.20
2023-02-07T19:56:09.544Z,83.20
2023-02-07T19:58:39.177Z,83.20
2023-02-07T20:01:06.395Z,83.40
2023-02-07T20:03:34.068Z,84.80
2023-02-07T20:06:05.848Z,85.40
2023-02-07T20:08:34.737Z,85.40
2023-02-07T20:11:07.390Z,85.20
2023-02-07T20:13:39.710Z,85.10
2023-02-07T20:16:10.008Z,85.00
2023-02-07T20:18:36.980Z,85.10
2023-02-07T20:21:11.757Z,85.10
2023-02-07T20:23:39.945Z,85.00
2023-02-07T20:26:10.261Z,85.10
2023-02-07T20:28:38.316Z,85.50
2023-02-07T20:31:13.362Z,85.30
2023-02-07T20:33:41.240Z,85.50
2023-02-07T20:36:10.057Z,85.70
2023-02-07T20:38:36.850Z,86.10
2023-02-07T20:41:07.027Z,86.10
2023-02-07T20:43:34.001Z,86.20
2023-02-07T20:46:05.751Z,86.30
2023-02-07T20:48:32.517Z,86.30
2023-02-07T20:50:59.825Z,86.80
2023-02-07T20:53:27.013Z,87.40
2023-02-07T20:55:53.728Z,88.80
2023-02-07T20:58:20.650Z,89.40
2023-02-07T21:00:47.401Z,89.30
2023-02-07T21:03:14.179Z,88.90
2023-02-07T21:05:41.049Z,89.00
2023-02-07T21:08:10.572Z,89.40
2023-02-07T21:10:37.529Z,89.30
2023-02-07T21:13:05.159Z,89.60
2023-02-07T21:15:31.913Z,89.70
2023-02-07T21:17:58.623Z,89.70
2023-02-07T21:20:25.743Z,89.90
2023-02-07T21:22:52.565Z,90.20
2023-02-07T21:25:19.320Z,90.20
2023-02-07T21:27:46.373Z,90.00
2023-02-07T21:30:13.639Z,90.50
2023-02-07T21:32:40.679Z,90.80
2023-02-07T21:35:07.616Z,90.70
2023-02-07T21:37:34.983Z,90.40
2023-02-07T21:40:01.799Z,90.20
2023-02-07T21:42:28.602Z,90.20
2023-02-07T21:44:55.444Z,90.20
2023-02-07T21:47:22.222Z,90.50
2023-02-07T21:49:49.033Z,90.70
2023-02-07T21:52:17.812Z,90.40
2023-02-07T21:54:44.779Z,90.00
2023-02-07T21:57:11.689Z,89.70
2023-02-07T21:59:39.225Z,89.50
2023-02-07T22:02:06.449Z,89.50
2023-02-07T22:04:33.297Z,89.50
2023-02-07T22:07:02.227Z,89.30
2023-02-07T22:09:29.299Z,89.40
2023-02-07T22:11:56.294Z,89.40
2023-02-07T22:14:25.878Z,89.70
2023-02-07T22:16:53.678Z,89.90
2023-02-07T22:19:21.560Z,89.90
2023-02-07T22:21:50.412Z,89.80
2023-02-07T22:24:18.805Z,89.90
2023-02-07T22:26:45.820Z,89.60
2023-02-07T22:29:13.358Z,89.40
2023-02-07T22:31:41.974Z,89.20
2023-02-07T22:34:12.670Z,89.20
2023-02-07T22:36:43.170Z,89.60
2023-02-07T22:39:11.563Z,89.80
2023-02-07T22:41:38.291Z,90.10
2023-02-07T22:44:05.243Z,90.20
2023-02-07T22:46:32.335Z,90.40
2023-02-07T22:48:59.850Z,90.50
2023-02-07T22:51:32.596Z,90.60
2023-02-07T22:54:08.328Z,90.70
2023-02-07T22:56:37.686Z,90.70
2023-02-07T22:59:05.356Z,90.90
2023-02-07T23:01:38.833Z,91.00
2023-02-07T23:04:10.961Z,91.10
2023-02-07T23:06:41.196Z,91.10
2023-02-07T23:09:08.141Z,91.00
2023-02-07T23:11:35.668Z,90.90
2023-02-07T23:14:03.632Z,91.20
2023-02-07T23:16:31.231Z,91.30
2023-02-07T23:19:11.153Z,91.30
2023-02-07T23:21:37.944Z,91.40
2023-02-07T23:24:05.217Z,91.40
2023-02-07T23:26:32.446Z,91.20
2023-02-07T23:28:59.297Z,91.20
2023-02-07T23:31:26.722Z,91.20
2023-02-07T23:33:53.695Z,90.80
2023-02-07T23:36:21.158Z,91.00
2023-02-07T23:38:48.774Z,91.20
2023-02-07T23:41:16.534Z,91.20
2023-02-07T23:43:43.311Z,91.20
2023-02-07T23:46:10.980Z,91.50
2023-02-07T23:48:38.861Z,91.70
2023-02-07T23:51:06.772Z,92.10
2023-02-07T23:53:34.616Z,92.00
2023-02-07T23:56:01.702Z,91.60
2023-02-07T23:58:29.272Z,91.60
